Time;durP1;ratioP1;P1;durP2;ratioP2;P2;SDS_P1;SDS_P2;PMS_P1;PMS_P2;Temp;Humidity;BMP_temperature;BMP_pressure;BME280_temperature;BME280_humidity;BME280_pressure;Samples;Min_cycle;Max_cycle;Signal;HPM_P1;HPM_P2
2020/12/12 00:00:58;;;;;;;21.67;16.90;;;8.20;96.70;;;;;;5001103;28;20518;-83
2020/12/12 00:03:25;;;;;;;20.35;16.90;;;8.20;96.70;;;;;;4985494;28;20153;-83
2020/12/12 00:05:54;;;;;;;22.75;16.50;;;8.10;96.70;;;;;;5012772;28;20044;-84
2020/12/12 00:08:21;;;;;;;19.23;15.23;;;8.10;96.70;;;;;;4985081;28;20046;-83
2020/12/12 00:10:50;;;;;;;23.90;16.52;;;8.20;96.70;;;;;;5004800;28;20038;-83
2020/12/12 00:13:17;;;;;;;20.98;16.65;;;8.20;96.70;;;;;;5005165;28;20041;-84
2020/12/12 00:15:45;;;;;;;20.52;16.13;;;8.20;96.70;;;;;;4995827;28;20042;-83
2020/12/12 00:18:12;;;;;;;20.75;17.20;;;8.20;96.70;;;;;;4999537;28;20115;-83
2020/12/12 00:20:39;;;;;;;22.20;16.73;;;8.20;96.70;;;;;;4981137;28;20065;-83
2020/12/12 00:23:06;;;;;;;21.13;16.38;;;8.20;96.70;;;;;;4997594;28;20045;-83
2020/12/12 00:25:33;;;;;;;20.80;15.43;;;8.20;96.70;;;;;;4994965;28;20035;-83
2020/12/12 00:28:00;;;;;;;19.80;15.73;;;8.20;96.70;;;;;;4978181;28;20072;-83
2020/12/12 00:30:27;;;;;;;21.88;16.00;;;8.20;96.70;;;;;;5002412;28;20042;-83
2020/12/12 00:32:55;;;;;;;17.10;14.25;;;8.20;96.70;;;;;;4988136;28;20080;-83
2020/12/12 00:35:23;;;;;;;18.88;14.60;;;8.20;96.70;;;;;;4999073;28;20034;-83
2020/12/12 00:37:50;;;;;;;20.20;14.88;;;8.20;96.70;;;;;;4996490;28;20473;-84
2020/12/12 00:40:17;;;;;;;19.35;14.13;;;8.20;96.70;;;;;;4999292;28;20111;-83
2020/12/12 00:42:44;;;;;;;16.92;14.40;;;8.20;96.70;;;;;;5002170;28;20326;-83
2020/12/12 00:45:11;;;;;;;17.23;13.63;;;8.20;96.70;;;;;;5000750;28;20519;-83
2020/12/12 00:47:38;;;;;;;19.35;13.98;;;8.20;96.70;;;;;;5001033;28;20048;-83
2020/12/12 00:50:06;;;;;;;18.23;12.95;;;8.20;96.70;;;;;;5000122;28;20057;-83
2020/12/12 00:52:34;;;;;;;17.48;12.90;;;8.20;96.70;;;;;;5005626;28;20049;-83
2020/12/12 00:55:01;;;;;;;16.33;12.32;;;8.20;96.70;;;;;;5003267;28;20038;-83
2020/12/12 00:57:29;;;;;;;18.73;13.50;;;8.10;96.70;;;;;;5000035;28;20044;-83
2020/12/12 00:59:57;;;;;;;17.20;11.88;;;8.10;96.70;;;;;;4996940;28;20038;-83
2020/12/12 01:02:24;;;;;;;16.67;12.00;;;8.10;96.70;;;;;;5002518;28;20040;-83
2020/12/12 01:04:51;;;;;;;14.70;12.27;;;8.10;96.70;;;;;;5001335;28;20104;-83
2020/12/12 01:07:23;;;;;;;15.85;11.52;;;8.10;96.70;;;;;;5002205;28;20476;-83
2020/12/12 01:09:50;;;;;;;14.43;11.57;;;8.10;96.70;;;;;;5003699;28;20045;-84
2020/12/12 01:12:17;;;;;;;15.15;11.32;;;8.10;96.70;;;;;;5004763;28;20060;-83
2020/12/12 01:14:45;;;;;;;16.42;11.55;;;8.20;96.70;;;;;;5004109;28;20038;-83
2020/12/12 01:17:12;;;;;;;15.02;11.82;;;8.20;96.70;;;;;;4986586;28;20104;-83
2020/12/12 01:19:40;;;;;;;18.05;11.60;;;8.10;96.70;;;;;;5002554;28;20041;-84
2020/12/12 01:22:07;;;;;;;13.80;11.27;;;8.10;96.70;;;;;;5005173;28;20041;-84
2020/12/12 01:24:35;;;;;;;14.43;11.13;;;8.10;96.70;;;;;;5003654;28;20065;-83
2020/12/12 01:27:02;;;;;;;16.10;10.77;;;8.10;96.70;;;;;;5002100;28;20574;-83
2020/12/12 01:29:29;;;;;;;14.82;11.27;;;8.10;96.70;;;;;;5002729;28;20504;-83
2020/12/12 01:31:56;;;;;;;14.93;10.35;;;8.10;96.70;;;;;;5003259;28;20078;-83
2020/12/12 01:34:23;;;;;;;14.75;11.63;;;8.10;96.70;;;;;;5003819;28;20161;-83
2020/12/12 01:36:50;;;;;;;11.93;10.23;;;8.10;96.70;;;;;;5002843;28;20367;-84
2020/12/12 01:39:18;;;;;;;14.50;10.82;;;8.20;96.70;;;;;;5001900;28;20034;-83
2020/12/12 01:41:46;;;;;;;12.80;10.45;;;8.20;96.70;;;;;;5003514;28;20084;-83
2020/12/12 01:44:16;;;;;;;13.23;10.73;;;8.20;96.70;;;;;;5005528;28;20050;-83
2020/12/12 01:46:43;;;;;;;12.18;9.90;;;8.20;96.70;;;;;;5004475;28;20045;-84
2020/12/12 01:49:10;;;;;;;13.90;10.02;;;8.20;96.70;;;;;;5002528;28;20042;-83
2020/12/12 01:51:37;;;;;;;12.23;9.98;;;8.20;96.70;;;;;;5004907;28;20387;-83
2020/12/12 01:54:05;;;;;;;13.57;9.57;;;8.20;96.70;;;;;;5003119;28;20046;-84
2020/12/12 01:56:33;;;;;;;11.77;9.00;;;8.20;96.70;;;;;;5004739;28;20038;-84
2020/12/12 01:59:15;;;;;;;13.07;9.30;;;8.20;96.70;;;;;;4983490;28;20081;-83
2020/12/12 02:01:46;;;;;;;14.82;9.55;;;8.20;96.70;;;;;;5002174;28;20413;-83
2020/12/12 02:04:21;;;;;;;13.25;8.93;;;8.20;96.70;;;;;;5002215;28;20104;-83
2020/12/12 02:06:51;;;;;;;12.60;8.95;;;8.20;96.70;;;;;;5004240;28;20068;-83
2020/12/12 02:09:18;;;;;;;9.23;7.88;;;8.20;96.70;;;;;;5019603;28;20045;-83
2020/12/12 02:11:45;;;;;;;10.73;8.48;;;8.20;96.70;;;;;;4985248;28;20045;-84
2020/12/12 02:14:15;;;;;;;11.38;8.70;;;8.20;96.70;;;;;;4999326;28;20034;-84
2020/12/12 02:16:51;;;;;;;13.77;8.38;;;8.20;96.70;;;;;;5003445;28;20042;-84
2020/12/12 02:19:19;;;;;;;10.35;7.85;;;8.20;96.70;;;;;;5003288;28;20038;-84
2020/12/12 02:21:51;;;;;;;11.85;8.82;;;8.20;96.70;;;;;;5003381;28;20121;-84
2020/12/12 02:24:19;;;;;;;10.52;8.15;;;8.20;96.70;;;;;;5001511;28;20500;-83
2020/12/12 02:26:46;;;;;;;11.60;7.90;;;8.20;96.70;;;;;;5001604;28;20041;-84
2020/12/12 02:29:14;;;;;;;11.65;8.65;;;8.20;96.70;;;;;;4988830;28;20052;-87
2020/12/12 02:31:41;;;;;;;10.73;8.50;;;8.20;96.70;;;;;;5001607;28;20041;-84
2020/12/12 02:34:09;;;;;;;11.25;8.27;;;8.20;96.70;;;;;;5000358;28;20135;-83
2020/12/12 02:36:37;;;;;;;10.07;8.10;;;8.20;96.70;;;;;;5003536;28;20120;-83
2020/12/12 02:39:07;;;;;;;12.43;7.70;;;8.20;96.70;;;;;;5005531;28;20075;-84
2020/12/12 02:41:34;;;;;;;10.40;7.93;;;8.20;96.70;;;;;;5003300;28;20046;-84
2020/12/12 02:44:02;;;;;;;10.55;7.70;;;8.20;96.70;;;;;;5002356;28;20038;-83
2020/12/12 02:46:29;;;;;;;9.40;7.75;;;8.20;96.70;;;;;;4986080;28;20422;-84
2020/12/12 02:48:57;;;;;;;9.20;7.55;;;8.20;96.70;;;;;;4996912;28;20122;-84
2020/12/12 02:51:24;;;;;;;10.38;7.50;;;8.20;96.70;;;;;;5002389;28;20052;-83
2020/12/12 02:53:55;;;;;;;11.77;7.00;;;8.20;96.70;;;;;;5000224;28;20052;-83
2020/12/12 02:56:28;;;;;;;9.15;7.53;;;8.20;96.70;;;;;;4985981;28;20512;-84
2020/12/12 02:58:57;;;;;;;8.73;6.65;;;8.20;96.70;;;;;;4986357;28;20523;-84
2020/12/12 03:01:24;;;;;;;8.40;6.82;;;8.20;96.70;;;;;;5002241;28;20042;-83
2020/12/12 03:03:51;;;;;;;11.02;7.40;;;8.20;96.70;;;;;;5001082;28;20117;-84
2020/12/12 03:06:18;;;;;;;8.18;6.63;;;8.20;96.70;;;;;;4999041;28;20057;-83
2020/12/12 03:08:46;;;;;;;7.97;6.57;;;8.20;96.70;;;;;;4984031;28;20046;-84
2020/12/12 03:11:13;;;;;;;8.95;6.43;;;8.20;96.70;;;;;;5001387;28;20046;-83
2020/12/12 03:13:41;;;;;;;8.80;6.75;;;8.20;96.70;;;;;;4997803;28;20057;-84
2020/12/12 03:16:08;;;;;;;8.77;6.45;;;8.20;96.70;;;;;;4999427;28;20046;-83
2020/12/12 03:18:36;;;;;;;8.57;6.45;;;8.20;96.70;;;;;;4998906;28;20042;-83
2020/12/12 03:21:03;;;;;;;7.18;6.10;;;8.20;96.70;;;;;;5002578;28;20060;-83
2020/12/12 03:23:30;;;;;;;9.80;6.93;;;8.20;96.70;;;;;;4999108;28;20044;-84
2020/12/12 03:25:57;;;;;;;8.50;6.80;;;8.20;96.70;;;;;;4985639;28;20041;-84
2020/12/12 03:28:24;;;;;;;8.63;6.28;;;8.20;96.70;;;;;;5001288;28;20609;-83
2020/12/12 03:30:52;;;;;;;7.93;6.50;;;8.20;96.70;;;;;;4986704;28;20049;-84
2020/12/12 03:33:19;;;;;;;8.85;6.88;;;8.20;96.70;;;;;;5002966;28;20102;-84
2020/12/12 03:35:46;;;;;;;9.27;6.20;;;8.20;96.70;;;;;;4998829;28;20042;-83
2020/12/12 03:38:13;;;;;;;7.18;6.18;;;8.10;96.70;;;;;;5000971;28;20056;-83
2020/12/12 03:40:46;;;;;;;7.93;6.30;;;8.10;96.70;;;;;;4985768;28;20042;-84
2020/12/12 03:43:25;;;;;;;8.30;6.03;;;8.10;96.70;;;;;;4998950;28;20685;-84
2020/12/12 03:46:14;;;;;;;9.73;5.80;;;8.10;96.70;;;;;;5001420;28;20049;-83
2020/12/12 03:48:54;;;;;;;7.05;5.90;;;8.10;96.70;;;;;;4999488;28;20088;-83
2020/12/12 03:51:37;;;;;;;6.05;5.10;;;8.10;96.70;;;;;;4999393;28;21334;-84
2020/12/12 03:54:05;;;;;;;6.82;5.70;;;8.10;96.70;;;;;;5008757;28;20245;-83
2020/12/12 03:56:33;;;;;;;6.25;5.20;;;8.10;96.70;;;;;;5001574;28;20080;-83
2020/12/12 03:59:00;;;;;;;6.55;5.22;;;8.10;96.70;;;;;;5000889;28;20042;-83
2020/12/12 04:01:28;;;;;;;6.63;4.80;;;8.10;96.70;;;;;;5000953;28;20030;-83
2020/12/12 04:03:55;;;;;;;7.13;4.70;;;8.10;96.70;;;;;;5001422;28;20500;-83
2020/12/12 04:06:22;;;;;;;7.60;5.35;;;8.10;96.70;;;;;;5000528;28;20099;-84
2020/12/12 04:08:49;;;;;;;6.93;4.90;;;8.10;96.70;;;;;;5001242;28;20046;-83
2020/12/12 04:11:16;;;;;;;5.75;5.10;;;8.10;96.70;;;;;;5000629;28;20069;-83
2020/12/12 04:13:44;;;;;;;8.05;5.82;;;8.10;96.70;;;;;;5001302;28;20046;-83
2020/12/12 04:16:12;;;;;;;6.20;4.90;;;8.10;96.70;;;;;;5001056;28;20123;-83
2020/12/12 04:18:40;;;;;;;6.85;5.05;;;8.10;96.70;;;;;;5001066;28;20519;-83
2020/12/12 04:21:07;;;;;;;7.97;5.07;;;8.10;96.70;;;;;;4998464;28;20542;-83
2020/12/12 04:23:35;;;;;;;6.07;4.78;;;8.10;96.70;;;;;;5000847;28;20507;-83
2020/12/12 04:26:03;;;;;;;6.47;5.20;;;8.00;96.70;;;;;;4999607;28;20038;-83
2020/12/12 04:28:30;;;;;;;6.90;4.95;;;8.00;96.70;;;;;;5000766;28;20120;-83
2020/12/12 04:30:58;;;;;;;7.35;5.50;;;8.10;96.70;;;;;;5000916;28;20045;-83
2020/12/12 04:33:27;;;;;;;8.13;5.82;;;8.10;96.70;;;;;;4978859;28;20054;-84
2020/12/12 04:35:55;;;;;;;7.43;5.55;;;8.10;96.70;;;;;;5015596;28;20101;-84
2020/12/12 04:38:22;;;;;;;7.32;5.78;;;8.10;96.70;;;;;;5003448;28;20044;-83
2020/12/12 04:41:01;;;;;;;6.63;5.18;;;8.10;96.70;;;;;;5003686;28;20050;-83
2020/12/12 04:43:30;;;;;;;5.43;4.75;;;8.10;96.70;;;;;;4986589;28;20041;-83
2020/12/12 04:45:58;;;;;;;7.55;4.57;;;8.10;96.70;;;;;;5003072;28;20447;-83
2020/12/12 04:48:26;;;;;;;6.72;5.05;;;8.10;96.70;;;;;;5002797;28;20088;-84
2020/12/12 04:50:56;;;;;;;10.15;5.60;;;8.10;96.70;;;;;;5003533;28;20158;-83
2020/12/12 04:53:25;;;;;;;7.32;5.38;;;8.10;96.70;;;;;;5000107;28;20060;-84
2020/12/12 04:55:54;;;;;;;6.50;5.22;;;8.10;96.70;;;;;;5005233;28;20515;-84
2020/12/12 04:58:24;;;;;;;7.03;5.00;;;8.10;96.70;;;;;;5002604;28;20050;-83
2020/12/12 05:00:54;;;;;;;5.15;4.32;;;8.10;96.70;;;;;;4988241;28;20049;-84
2020/12/12 05:03:22;;;;;;;8.45;4.43;;;8.20;96.70;;;;;;5003404;28;20050;-83
2020/12/12 05:05:50;;;;;;;7.50;4.93;;;8.10;96.70;;;;;;5003869;28;20335;-84
2020/12/12 05:08:19;;;;;;;7.05;4.95;;;8.10;96.70;;;;;;5004191;28;20042;-83
2020/12/12 05:10:48;;;;;;;8.38;4.50;;;8.10;96.70;;;;;;5003617;28;20038;-83
2020/12/12 05:13:17;;;;;;;6.65;4.90;;;8.20;96.70;;;;;;4982787;28;20034;-83
2020/12/12 05:15:44;;;;;;;5.63;4.88;;;8.20;96.70;;;;;;5004905;28;20137;-83
2020/12/12 05:18:12;;;;;;;8.45;4.82;;;8.20;96.70;;;;;;5001170;28;20548;-83
2020/12/12 05:20:40;;;;;;;5.53;4.47;;;8.10;96.70;;;;;;5007690;28;20072;-84
2020/12/12 05:23:17;;;;;;;5.50;3.88;;;8.20;96.70;;;;;;4983832;28;20312;-83
2020/12/12 05:25:46;;;;;;;6.10;4.50;;;8.20;96.70;;;;;;4988722;28;20124;-83
2020/12/12 05:28:16;;;;;;;6.13;4.40;;;8.20;96.70;;;;;;5001486;28;20792;-83
2020/12/12 05:30:44;;;;;;;5.45;4.47;;;8.20;96.70;;;;;;5002633;28;20554;-82
2020/12/12 05:33:14;;;;;;;5.88;4.30;;;8.20;96.70;;;;;;5002974;28;20041;-84
2020/12/12 05:35:42;;;;;;;6.15;5.15;;;8.20;96.70;;;;;;4991626;28;20065;-82
2020/12/12 05:38:09;;;;;;;6.82;4.75;;;8.20;96.70;;;;;;5004906;28;20080;-83
2020/12/12 05:40:37;;;;;;;5.75;4.55;;;8.20;96.70;;;;;;5004583;28;20046;-82
2020/12/12 05:43:07;;;;;;;5.07;4.18;;;8.20;96.70;;;;;;4998364;28;20049;-83
2020/12/12 05:45:34;;;;;;;5.03;3.80;;;8.20;96.70;;;;;;5005269;28;20128;-82
2020/12/12 05:48:03;;;;;;;7.30;4.55;;;8.20;96.70;;;;;;4984135;28;20038;-83
2020/12/12 05:50:30;;;;;;;5.50;4.00;;;8.30;96.70;;;;;;5003390;28;20156;-83
2020/12/12 05:52:57;;;;;;;7.25;4.22;;;8.30;96.70;;;;;;5005234;28;20108;-83
2020/12/12 05:55:27;;;;;;;6.80;4.10;;;8.30;96.70;;;;;;4987301;28;20246;-83
2020/12/12 05:57:56;;;;;;;4.90;4.00;;;8.30;96.70;;;;;;5001402;28;20050;-83
2020/12/12 06:00:25;;;;;;;4.78;4.20;;;8.30;96.70;;;;;;5004448;28;20049;-82
2020/12/12 06:02:54;;;;;;;5.65;4.45;;;8.30;96.70;;;;;;5021724;28;20049;-83
2020/12/12 06:05:26;;;;;;;6.55;4.18;;;8.30;96.70;;;;;;5004002;28;20569;-83
2020/12/12 06:07:56;;;;;;;5.22;4.25;;;8.20;96.70;;;;;;5003308;28;20034;-83
2020/12/12 06:10:26;;;;;;;5.20;3.85;;;8.20;96.70;;;;;;5002129;28;20147;-83
2020/12/12 06:12:57;;;;;;;5.22;4.25;;;8.20;96.70;;;;;;5003765;28;20110;-83
2020/12/12 06:15:34;;;;;;;5.32;4.50;;;8.20;96.70;;;;;;5003890;28;20483;-83
2020/12/12 06:18:18;;;;;;;6.65;4.25;;;8.20;96.70;;;;;;5001275;28;20045;-83
2020/12/12 06:20:45;;;;;;;5.82;4.57;;;8.20;96.70;;;;;;4998680;28;20512;-82
2020/12/12 06:23:13;;;;;;;8.07;4.45;;;8.20;96.70;;;;;;4987322;28;20504;-81
2020/12/12 06:25:41;;;;;;;6.80;4.40;;;8.20;96.70;;;;;;5001802;28;20073;-81
2020/12/12 06:28:15;;;;;;;5.57;4.80;;;8.20;96.70;;;;;;5001759;28;20045;-85
2020/12/12 06:30:44;;;;;;;6.82;5.18;;;8.20;96.70;;;;;;5002494;28;20633;-83
2020/12/12 06:33:12;;;;;;;7.05;4.50;;;8.20;96.70;;;;;;5003444;28;20096;-83
2020/12/12 06:35:39;;;;;;;6.32;4.55;;;8.20;96.70;;;;;;5001723;28;20456;-88
2020/12/12 06:38:24;;;;;;;6.47;4.97;;;8.20;96.70;;;;;;5004061;28;20038;-85
2020/12/12 06:40:53;;;;;;;5.70;4.90;;;8.20;96.70;;;;;;5002546;28;20119;-85
2020/12/12 06:43:36;;;;;;;6.22;4.57;;;8.20;96.70;;;;;;5001301;28;20128;-82
2020/12/12 06:46:05;;;;;;;4.78;4.30;;;8.10;96.70;;;;;;4998676;28;20054;-84
2020/12/12 06:48:33;;;;;;;7.13;4.95;;;8.10;96.70;;;;;;4986278;28;20037;-82
2020/12/12 06:51:02;;;;;;;6.50;4.63;;;8.10;96.70;;;;;;5000283;28;20041;-82
2020/12/12 06:53:31;;;;;;;6.82;5.22;;;8.10;96.70;;;;;;5001773;28;20045;-84
2020/12/12 06:56:07;;;;;;;5.47;4.55;;;8.10;96.70;;;;;;5000758;28;20504;-84
2020/12/12 06:58:35;;;;;;;7.45;4.75;;;8.10;96.70;;;;;;4999957;28;20278;-84
2020/12/12 07:01:32;;;;;;;7.05;5.05;;;8.20;96.70;;;;;;5002911;28;20052;-83
2020/12/12 07:04:02;;;;;;;6.75;4.72;;;8.10;96.70;;;;;;4996104;28;20136;-84
2020/12/12 07:06:31;;;;;;;7.00;5.13;;;8.10;96.70;;;;;;4976528;28;20034;-83
2020/12/12 07:09:00;;;;;;;7.35;5.55;;;8.10;96.70;;;;;;4999582;28;20069;-83
2020/12/12 07:11:28;;;;;;;8.52;6.05;;;8.20;96.70;;;;;;5000291;28;20124;-83
2020/12/12 07:13:55;;;;;;;7.80;5.93;;;8.20;96.70;;;;;;5012119;28;20052;-84
2020/12/12 07:16:23;;;;;;;8.10;6.22;;;8.20;96.70;;;;;;4984659;28;20038;-85
2020/12/12 07:18:51;;;;;;;54.67;40.17;;;8.20;96.70;;;;;;4984179;28;20038;-81
2020/12/12 07:21:19;;;;;;;18.70;13.98;;;8.20;96.70;;;;;;5000232;28;20046;-82
2020/12/12 07:23:48;;;;;;;18.38;14.18;;;8.20;96.70;;;;;;5000749;28;20548;-82
2020/12/12 07:26:15;;;;;;;14.25;11.30;;;8.20;96.70;;;;;;5000837;28;20078;-82
2020/12/12 07:28:43;;;;;;;14.20;11.48;;;8.20;96.70;;;;;;4999074;28;20053;-82
2020/12/12 07:31:10;;;;;;;14.60;11.75;;;8.20;96.70;;;;;;4979837;28;20077;-82
2020/12/12 07:33:37;;;;;;;13.07;10.25;;;8.20;96.70;;;;;;4999492;28;20129;-83
2020/12/12 07:36:04;;;;;;;10.27;8.90;;;8.20;96.70;;;;;;5002089;28;20034;-83
2020/12/12 07:38:39;;;;;;;11.13;7.88;;;8.20;96.70;;;;;;5000143;28;20042;-84
2020/12/12 07:41:11;;;;;;;9.45;7.72;;;8.20;96.70;;;;;;4994524;28;20041;-84
2020/12/12 07:43:54;;;;;;;9.88;7.00;;;8.30;96.70;;;;;;4997120;28;20129;-84
2020/12/12 07:46:38;;;;;;;10.40;7.75;;;8.30;96.70;;;;;;4999581;28;20045;-83
2020/12/12 07:49:07;;;;;;;7.55;6.75;;;8.30;96.70;;;;;;5016103;28;20077;-83
2020/12/12 07:51:35;;;;;;;8.02;6.75;;;8.30;96.70;;;;;;4998864;28;20066;-82
2020/12/12 07:54:12;;;;;;;7.22;6.43;;;8.30;96.70;;;;;;4995525;28;20053;-83
2020/12/12 07:56:49;;;;;;;8.20;6.30;;;8.40;96.70;;;;;;4999040;28;20522;-81
2020/12/12 07:59:19;;;;;;;8.18;6.60;;;8.40;96.70;;;;;;5001881;28;20066;-82
2020/12/12 08:01:48;;;;;;;7.03;5.85;;;8.40;96.70;;;;;;4997810;28;20526;-81
2020/12/12 08:04:20;;;;;;;7.95;6.38;;;8.40;96.70;;;;;;4983844;28;20040;-82
2020/12/12 08:06:48;;;;;;;7.88;6.25;;;8.40;96.70;;;;;;4997286;28;20038;-82
2020/12/12 08:09:21;;;;;;;6.43;5.45;;;8.40;96.70;;;;;;4999273;28;20081;-82
2020/12/12 08:11:57;;;;;;;8.60;6.57;;;8.40;96.70;;;;;;4998427;28;20091;-81
2020/12/12 08:14:28;;;;;;;7.60;6.80;;;8.40;96.70;;;;;;4998501;28;20077;-83
2020/12/12 08:16:58;;;;;;;7.53;6.28;;;8.40;96.70;;;;;;4983231;28;20049;-83
2020/12/12 08:19:28;;;;;;;8.15;6.45;;;8.40;96.70;;;;;;4999643;28;20046;-83
2020/12/12 08:22:07;;;;;;;9.50;7.40;;;8.40;96.70;;;;;;4999870;28;20045;-83
2020/12/12 08:24:35;;;;;;;9.90;7.70;;;8.50;96.70;;;;;;5030031;28;20330;-85
2020/12/12 08:27:09;;;;;;;9.63;7.70;;;8.50;96.70;;;;;;4999570;28;20364;-87
2020/12/12 08:29:42;;;;;;;9.25;7.63;;;8.50;96.70;;;;;;4991667;28;20073;-82
2020/12/12 08:32:29;;;;;;;9.32;7.88;;;8.50;96.70;;;;;;4982258;28;20405;-83
2020/12/12 08:35:14;;;;;;;9.75;7.35;;;8.50;96.70;;;;;;4998033;28;20050;-85
2020/12/12 08:37:52;;;;;;;9.30;7.60;;;8.50;96.70;;;;;;4999696;28;20037;-85
2020/12/12 08:40:26;;;;;;;9.25;7.55;;;8.50;96.70;;;;;;4981334;28;20591;-83
2020/12/12 08:42:56;;;;;;;9.48;7.35;;;8.50;96.70;;;;;;4999396;28;20046;-86
2020/12/12 08:45:24;;;;;;;8.25;7.10;;;8.50;96.70;;;;;;4995691;28;20175;-82
2020/12/12 08:48:01;;;;;;;8.77;7.50;;;8.50;96.70;;;;;;4983273;28;20662;-90
2020/12/12 08:50:31;;;;;;;10.02;8.00;;;8.50;96.70;;;;;;4998014;28;20042;-85
2020/12/12 08:53:21;;;;;;;9.43;8.13;;;8.50;96.70;;;;;;4997406;28;20720;-87
2020/12/12 08:56:06;;;;;;;11.02;8.45;;;8.50;96.70;;;;;;4983303;28;20050;-87
2020/12/12 08:58:36;;;;;;;8.60;7.40;;;8.50;96.70;;;;;;5000284;28;20575;-88
2020/12/12 09:01:20;;;;;;;10.18;7.63;;;8.50;96.70;;;;;;4999765;28;20037;-87
2020/12/12 09:03:55;;;;;;;8.02;7.13;;;8.50;96.70;;;;;;4997398;28;20609;-82
2020/12/12 09:06:23;;;;;;;10.80;7.07;;;8.50;96.70;;;;;;4998830;28;20517;-81
2020/12/12 09:09:04;;;;;;;11.15;7.78;;;8.50;96.70;;;;;;4981498;28;20068;-82
2020/12/12 09:11:32;;;;;;;10.25;7.40;;;8.50;96.70;;;;;;4992729;28;20160;-81
2020/12/12 09:14:00;;;;;;;10.88;7.22;;;8.50;96.70;;;;;;4982487;28;20646;-83
2020/12/12 09:16:27;;;;;;;103.88;74.20;;;8.60;96.70;;;;;;4999727;28;20157;-84
2020/12/12 09:18:55;;;;;;;39.65;30.40;;;8.60;96.70;;;;;;4980136;28;20048;-84
2020/12/12 09:21:22;;;;;;;35.95;27.33;;;8.70;96.70;;;;;;4998243;28;20089;-83
2020/12/12 09:23:50;;;;;;;23.27;18.63;;;8.70;96.70;;;;;;4981803;28;20115;-83
2020/12/12 09:26:21;;;;;;;40.42;30.50;;;8.70;96.70;;;;;;5004513;28;20038;-84
2020/12/12 09:28:51;;;;;;;17.38;13.45;;;8.70;96.70;;;;;;5000623;28;20145;-84
2020/12/12 09:31:21;;;;;;;16.40;13.20;;;8.70;96.70;;;;;;5003036;28;20050;-84
2020/12/12 09:33:49;;;;;;;13.25;11.13;;;8.70;96.70;;;;;;4989374;28;20126;-83
2020/12/12 09:36:17;;;;;;;11.25;10.02;;;8.70;96.70;;;;;;5002982;28;20037;-81
2020/12/12 09:38:44;;;;;;;11.68;9.10;;;8.70;96.70;;;;;;4982302;28;20034;-80
2020/12/12 09:41:12;;;;;;;9.82;8.30;;;8.70;96.70;;;;;;4985581;28;20034;-81
2020/12/12 09:43:41;;;;;;;10.75;7.60;;;8.70;96.70;;;;;;4997963;28;20046;-80
2020/12/12 09:46:10;;;;;;;8.82;7.90;;;8.70;96.70;;;;;;4999945;28;20037;-80
2020/12/12 09:48:38;;;;;;;8.55;7.57;;;8.70;96.70;;;;;;4985504;28;20064;-83
2020/12/12 09:51:10;;;;;;;9.43;7.45;;;8.80;96.70;;;;;;5001221;28;20543;-84
2020/12/12 09:53:37;;;;;;;11.90;7.72;;;8.80;96.70;;;;;;5000343;28;20042;-81
2020/12/12 09:56:04;;;;;;;9.10;6.60;;;8.80;96.70;;;;;;4998370;28;20333;-79
2020/12/12 09:58:32;;;;;;;8.38;6.35;;;8.80;96.70;;;;;;5032598;28;20378;-80
2020/12/12 10:00:59;;;;;;;8.25;6.88;;;8.90;96.70;;;;;;4983614;28;20034;-80
2020/12/12 10:03:27;;;;;;;8.77;6.45;;;8.90;96.70;;;;;;5000189;28;20164;-80
2020/12/12 10:05:55;;;;;;;9.40;6.90;;;8.90;96.70;;;;;;4984996;28;20500;-79
2020/12/12 10:08:22;;;;;;;7.65;6.63;;;9.00;96.70;;;;;;5000801;28;20133;-80
2020/12/12 10:10:51;;;;;;;8.48;6.68;;;9.00;96.70;;;;;;5000233;28;20140;-79
2020/12/12 10:13:18;;;;;;;8.18;7.38;;;9.00;96.70;;;;;;4998624;28;20100;-79
2020/12/12 10:15:46;;;;;;;10.68;7.78;;;9.00;96.70;;;;;;4999726;28;20360;-80
2020/12/12 10:18:14;;;;;;;17.60;11.57;;;9.00;96.70;;;;;;5001392;28;20042;-80
2020/12/12 10:20:46;;;;;;;12.15;9.57;;;9.00;96.70;;;;;;4984509;28;20117;-81
2020/12/12 10:23:13;;;;;;;10.50;8.20;;;9.10;96.70;;;;;;5000984;28;20097;-81
2020/12/12 10:25:41;;;;;;;8.43;7.07;;;9.10;96.70;;;;;;5000064;28;20587;-80
2020/12/12 10:28:10;;;;;;;7.63;6.82;;;9.10;96.70;;;;;;4999454;28;20053;-83
2020/12/12 10:30:38;;;;;;;9.18;6.88;;;9.20;96.70;;;;;;5001212;28;20077;-83
2020/12/12 10:33:06;;;;;;;6.95;6.25;;;9.20;96.70;;;;;;4985670;28;20042;-83
2020/12/12 10:35:35;;;;;;;8.23;6.55;;;9.30;96.70;;;;;;4972834;28;20061;-83
2020/12/12 10:38:06;;;;;;;6.68;5.80;;;9.30;96.70;;;;;;4998846;28;20039;-82
2020/12/12 10:43:04;;;;;;;7.07;6.18;;;9.30;96.70;;;;;;5000825;28;20042;-83
2020/12/12 10:45:32;;;;;;;6.82;5.85;;;9.40;96.70;;;;;;4985451;28;20049;-82
2020/12/12 10:47:59;;;;;;;6.50;5.63;;;9.40;96.70;;;;;;5002096;28;20309;-83
2020/12/12 10:50:28;;;;;;;7.63;5.82;;;9.40;96.70;;;;;;4999005;28;20045;-84
2020/12/12 10:52:55;;;;;;;8.10;5.80;;;9.40;96.70;;;;;;5001858;28;20038;-85
2020/12/12 10:55:25;;;;;;;6.97;5.65;;;9.40;96.70;;;;;;4998749;28;20579;-78
2020/12/12 10:57:52;;;;;;;7.55;5.60;;;9.40;96.70;;;;;;5002915;28;20496;-82
2020/12/12 11:00:24;;;;;;;6.97;5.90;;;9.40;96.70;;;;;;4983676;28;20129;-84
2020/12/12 11:02:51;;;;;;;6.80;6.05;;;9.40;96.70;;;;;;4996802;28;20125;-85
2020/12/12 11:05:19;;;;;;;7.57;6.63;;;9.40;96.70;;;;;;4999586;28;20038;-84
2020/12/12 11:07:52;;;;;;;7.10;6.40;;;9.40;96.70;;;;;;4999281;28;20050;-85
2020/12/12 11:10:20;;;;;;;111.88;92.80;;;9.40;96.70;;;;;;4985412;28;20092;-83
2020/12/12 11:12:50;;;;;;;127.60;88.10;;;9.40;96.70;;;;;;4984122;28;20077;-83
2020/12/12 11:15:17;;;;;;;35.15;26.60;;;9.40;96.70;;;;;;4999866;28;20164;-81
2020/12/12 11:17:45;;;;;;;30.25;22.17;;;9.40;96.70;;;;;;5002783;28;20049;-84
2020/12/12 11:20:12;;;;;;;26.25;20.02;;;9.40;96.70;;;;;;4983014;28;20086;-81
2020/12/12 11:22:39;;;;;;;18.65;14.35;;;9.40;96.70;;;;;;5003106;28;20527;-85
2020/12/12 11:25:07;;;;;;;13.93;11.40;;;9.40;96.70;;;;;;5004729;28;20049;-83
2020/12/12 11:27:34;;;;;;;13.80;10.35;;;9.40;96.70;;;;;;4999271;28;20038;-83
2020/12/12 11:30:06;;;;;;;9.70;8.25;;;9.40;96.70;;;;;;4999868;28;20038;-86
2020/12/12 11:32:34;;;;;;;10.60;7.82;;;9.30;96.70;;;;;;4992023;28;20042;-83
2020/12/12 11:35:07;;;;;;;7.97;7.18;;;9.30;96.70;;;;;;4999527;28;20449;-83
2020/12/12 11:37:48;;;;;;;8.20;6.80;;;9.30;96.70;;;;;;4998679;28;20042;-85
2020/12/12 11:40:23;;;;;;;7.88;6.82;;;9.30;96.70;;;;;;4999227;28;20129;-83
2020/12/12 11:47:55;;;;;;;8.10;6.70;;;9.40;96.70;;;;;;4999737;28;20046;-83
2020/12/12 11:50:22;;;;;;;8.75;7.78;;;9.40;96.70;;;;;;5002047;28;20038;-82
2020/12/12 11:52:54;;;;;;;7.50;6.72;;;9.40;96.70;;;;;;4999392;28;20148;-83
2020/12/12 11:55:21;;;;;;;8.48;7.10;;;9.40;96.70;;;;;;4997023;28;20069;-84
2020/12/12 11:57:48;;;;;;;7.78;6.25;;;9.40;96.70;;;;;;4997685;28;20617;-82
2020/12/12 12:00:16;;;;;;;10.93;7.68;;;9.50;96.70;;;;;;4999623;28;20033;-80
2020/12/12 12:02:44;;;;;;;11.93;8.82;;;9.50;96.70;;;;;;4999678;28;20503;-82
2020/12/12 12:05:11;;;;;;;8.80;7.90;;;9.60;96.70;;;;;;4978079;28;20049;-80
2020/12/12 12:07:46;;;;;;;9.82;6.70;;;9.60;96.70;;;;;;4982542;28;20037;-80
2020/12/12 12:12:43;;;;;;;6.38;5.13;;;9.80;96.70;;;;;;4981801;28;20388;-81
2020/12/12 12:15:10;;;;;;;7.10;5.35;;;9.90;96.70;;;;;;4999701;28;20503;-79
2020/12/12 12:17:37;;;;;;;6.15;4.93;;;9.90;96.70;;;;;;4997281;28;21402;-79
2020/12/12 12:20:07;;;;;;;26.15;19.35;;;9.90;96.70;;;;;;4998505;28;20050;-81
2020/12/12 12:22:34;;;;;;;29.83;23.27;;;9.80;96.70;;;;;;5000637;28;20042;-80
2020/12/12 12:25:01;;;;;;;14.02;12.02;;;9.80;96.70;;;;;;5002865;28;20499;-81
2020/12/12 12:27:28;;;;;;;11.32;9.45;;;9.80;96.70;;;;;;4987041;28;20069;-81
2020/12/12 12:29:55;;;;;;;9.18;7.68;;;9.80;96.70;;;;;;5002185;28;20042;-82
2020/12/12 12:32:22;;;;;;;10.38;8.43;;;9.90;96.70;;;;;;4982794;28;20542;-78
2020/12/12 12:34:50;;;;;;;8.27;6.93;;;9.90;96.70;;;;;;4982970;28;20042;-83
2020/12/12 12:37:18;;;;;;;8.73;6.43;;;9.90;96.70;;;;;;5000106;28;20623;-82
2020/12/12 12:39:45;;;;;;;6.80;5.28;;;10.00;96.70;;;;;;5001806;28;20132;-84
2020/12/12 12:42:12;;;;;;;7.07;4.68;;;10.00;96.70;;;;;;4997623;28;20069;-84
2020/12/12 12:44:44;;;;;;;5.30;4.07;;;10.00;96.70;;;;;;4981777;28;20049;-85
2020/12/12 12:47:12;;;;;;;7.30;4.88;;;10.00;96.70;;;;;;4996797;28;20042;-85
2020/12/12 12:49:40;;;;;;;5.15;4.28;;;10.10;96.70;;;;;;5013837;28;20057;-81
2020/12/12 12:52:08;;;;;;;4.80;3.75;;;10.20;96.70;;;;;;4980576;28;20057;-81
2020/12/12 12:54:36;;;;;;;5.38;3.95;;;10.20;96.70;;;;;;4977211;28;20037;-83
2020/12/12 12:57:03;;;;;;;6.10;4.82;;;10.20;96.70;;;;;;4982516;28;20129;-81
2020/12/12 12:59:30;;;;;;;4.38;3.95;;;10.20;96.70;;;;;;4980576;28;20576;-80
2020/12/12 13:01:57;;;;;;;5.05;3.58;;;10.30;96.70;;;;;;5001861;28;20226;-81
2020/12/12 13:04:25;;;;;;;3.53;3.08;;;10.40;96.70;;;;;;5001349;28;20089;-82
2020/12/12 13:06:52;;;;;;;5.60;4.28;;;10.40;96.70;;;;;;5003592;28;20038;-82
2020/12/12 13:09:30;;;;;;;4.25;3.65;;;10.50;96.70;;;;;;5003374;28;20049;-82
2020/12/12 13:11:58;;;;;;;4.55;3.38;;;10.60;96.70;;;;;;5002283;28;20045;-82